Terminal Aerodrome Forecast
Issued by NWS Portland, OR

Home | Current Version | Previous Version | Text Only | Print | Product List | Glossary On
Versions: 1 2 3 4 5 6 7 8 9 10 11 12 13 14 15 16 17 18 19 20 21 22 23 24 25 26 27 28
000
FTUS46 KPQR 032052 AAA
TAFPDX
TAF AMD
KPDX 032052Z 0321/0418 31006KT P6SM SCT120 OVC250
     FM040000 32010KT P6SM BKN080 OVC200
     FM040400 30008KT P6SM VCSH SCT040 BKN070 OVC120
     FM041200 34003KT P6SM OVC015
     FM041600 33004KT P6SM OVC050=

USA.gov is the U.S. government's official web portal to all federal, state and local government web resources and services.